createdAt,value
2022-09-02T00:01:03.549Z,100.00
2022-09-02T00:03:35.020Z,100.00
2022-09-02T00:06:04.578Z,100.00
2022-09-02T00:08:32.484Z,100.00
2022-09-02T00:11:03.557Z,100.00
2022-09-02T00:13:34.952Z,100.00
2022-09-02T00:16:07.153Z,100.00
2022-09-02T00:18:35.890Z,100.00
2022-09-02T00:21:03.967Z,100.00
2022-09-02T00:23:31.664Z,100.00
2022-09-02T00:25:59.379Z,100.00
2022-09-02T00:28:26.981Z,100.00
2022-09-02T00:30:54.784Z,100.00
2022-09-02T00:33:22.880Z,100.00
2022-09-02T00:35:50.504Z,100.00
2022-09-02T00:38:18.329Z,100.00
2022-09-02T00:40:50.561Z,100.00
2022-09-02T00:43:58.437Z,100.00
2022-09-02T00:46:30.410Z,100.00
2022-09-02T00:49:10.065Z,100.00
2022-09-02T00:51:50.980Z,100.00
2022-09-02T00:54:22.998Z,100.00
2022-09-02T00:56:53.972Z,100.00
2022-09-02T00:59:58.924Z,100.00
2022-09-02T01:02:29.075Z,100.00
2022-09-02T01:04:58.692Z,100.00
2022-09-02T01:07:34.009Z,100.00
2022-09-02T01:10:04.139Z,100.00
2022-09-02T01:12:33.386Z,100.00
2022-09-02T01:15:01.307Z,100.00
2022-09-02T01:17:34.816Z,100.00
2022-09-02T01:20:12.454Z,100.00
2022-09-02T01:22:42.702Z,100.00
2022-09-02T01:25:21.117Z,100.00
2022-09-02T01:27:52.464Z,100.00
2022-09-02T01:30:25.278Z,100.00
2022-09-02T01:32:53.715Z,100.00
2022-09-02T01:35:21.479Z,100.00
2022-09-02T01:37:55.396Z,100.00
2022-09-02T01:40:26.750Z,100.00
2022-09-02T01:42:58.700Z,100.00
2022-09-02T01:45:27.920Z,100.00
2022-09-02T01:47:56.196Z,100.00
2022-09-02T01:50:24.296Z,100.00
2022-09-02T01:52:52.440Z,100.00
2022-09-02T01:55:20.323Z,100.00
2022-09-02T01:57:48.024Z,100.00
2022-09-02T02:00:16.622Z,100.00
2022-09-02T02:02:45.050Z,100.00
2022-09-02T02:05:14.232Z,100.00
2022-09-02T02:07:44.421Z,100.00
2022-09-02T02:10:14.786Z,100.00
2022-09-02T02:12:44.021Z,100.00
2022-09-02T02:15:18.325Z,100.00
2022-09-02T02:17:49.777Z,100.00
2022-09-02T02:20:19.775Z,100.00
2022-09-02T02:22:47.586Z,100.00
2022-09-02T02:25:16.690Z,100.00
2022-09-02T02:27:45.682Z,100.00
2022-09-02T02:30:16.508Z,100.00
2022-09-02T02:32:50.099Z,100.00
2022-09-02T02:35:21.260Z,100.00
2022-09-02T02:37:52.748Z,100.00
2022-09-02T02:40:24.535Z,100.00
2022-09-02T02:42:53.843Z,100.00
2022-09-02T02:45:24.025Z,100.00
2022-09-02T02:47:55.338Z,100.00
2022-09-02T02:50:25.263Z,100.00
2022-09-02T02:52:54.942Z,100.00
2022-09-02T02:55:26.712Z,100.00
2022-09-02T02:57:57.065Z,100.00
2022-09-02T03:00:31.900Z,100.00
2022-09-02T03:03:04.938Z,100.00
2022-09-02T03:05:33.879Z,100.00
2022-09-02T03:08:10.576Z,100.00
2022-09-02T03:10:41.147Z,100.00
2022-09-02T03:13:11.667Z,100.00
2022-09-02T03:15:40.938Z,100.00
2022-09-02T03:18:11.636Z,100.00
2022-09-02T03:20:41.577Z,100.00
2022-09-02T03:23:12.579Z,100.00
2022-09-02T03:25:45.840Z,100.00
2022-09-02T03:28:33.842Z,100.00
2022-09-02T03:31:03.610Z,100.00
2022-09-02T03:33:32.401Z,100.00
2022-09-02T03:36:00.245Z,100.00
2022-09-02T03:38:32.008Z,100.00
2022-09-02T03:40:59.771Z,100.00
2022-09-02T03:43:27.489Z,100.00
2022-09-02T03:45:55.773Z,100.00
2022-09-02T03:48:24.844Z,100.00
2022-09-02T03:50:53.213Z,100.00
2022-09-02T03:53:21.753Z,100.00
2022-09-02T03:55:55.475Z,100.00
2022-09-02T03:58:28.972Z,100.00
2022-09-02T04:00:59.048Z,100.00
2022-09-02T04:03:27.317Z,100.00
2022-09-02T04:05:55.479Z,100.00
2022-09-02T04:08:26.514Z,100.00
2022-09-02T04:10:56.975Z,100.00
2022-09-02T04:13:24.751Z,100.00
2022-09-02T04:15:52.538Z,100.00
2022-09-02T04:18:23.146Z,100.00
2022-09-02T04:20:52.749Z,100.00
2022-09-02T04:23:21.410Z,100.00
2022-09-02T04:25:49.656Z,100.00
2022-09-02T04:28:18.518Z,100.00
2022-09-02T04:30:48.333Z,100.00
2022-09-02T04:33:16.542Z,100.00
2022-09-02T04:35:49.472Z,100.00
2022-09-02T04:38:19.487Z,100.00
2022-09-02T04:40:48.881Z,100.00
2022-09-02T04:43:21.848Z,100.00
2022-09-02T04:45:49.653Z,100.00
2022-09-02T04:48:19.917Z,100.00
2022-09-02T04:50:49.330Z,100.00
2022-09-02T04:53:18.325Z,100.00
2022-09-02T04:55:46.004Z,100.00
2022-09-02T04:58:17.909Z,100.00
2022-09-02T05:00:49.089Z,100.00
2022-09-02T05:03:19.070Z,100.00
2022-09-02T05:05:48.325Z,100.00
2022-09-02T05:08:17.662Z,100.00
2022-09-02T05:10:50.573Z,100.00
2022-09-02T05:13:18.720Z,100.00
2022-09-02T05:15:47.460Z,100.00
2022-09-02T05:18:18.475Z,100.00
2022-09-02T05:20:46.948Z,100.00
2022-09-02T05:23:14.934Z,100.00
2022-09-02T05:25:44.741Z,100.00
2022-09-02T05:28:13.190Z,100.00
2022-09-02T05:30:43.365Z,100.00
2022-09-02T05:33:13.727Z,100.00
2022-09-02T05:35:46.029Z,100.00
2022-09-02T05:38:17.778Z,100.00
2022-09-02T05:40:47.438Z,100.00
2022-09-02T05:43:15.314Z,100.00
2022-09-02T05:45:43.689Z,100.00
2022-09-02T05:48:30.179Z,100.00
2022-09-02T05:50:58.900Z,100.00
2022-09-02T05:53:29.621Z,100.00
2022-09-02T05:55:58.976Z,100.00
2022-09-02T05:58:26.517Z,100.00
2022-09-02T06:00:54.952Z,100.00
2022-09-02T06:03:22.686Z,100.00
2022-09-02T06:06:03.019Z,100.00
2022-09-02T06:08:35.293Z,100.00
2022-09-02T06:11:04.757Z,100.00
2022-09-02T06:13:39.184Z,100.00
2022-09-02T06:16:10.665Z,100.00
2022-09-02T06:18:45.752Z,100.00
2022-09-02T06:21:14.615Z,100.00
2022-09-02T06:23:46.010Z,100.00
2022-09-02T06:26:16.286Z,99.55
2022-09-02T06:28:48.035Z,100.00
2022-09-02T06:31:21.093Z,99.93
2022-09-02T06:33:54.451Z,97.21
2022-09-02T06:36:28.406Z,94.07
2022-09-02T06:39:01.751Z,93.06
2022-09-02T06:41:34.764Z,94.84
2022-09-02T06:44:08.045Z,94.16
2022-09-02T06:46:45.173Z,93.51
2022-09-02T06:49:16.423Z,92.25
2022-09-02T06:51:50.079Z,92.88
2022-09-02T06:54:21.523Z,92.90
2022-09-02T06:56:55.433Z,94.02
2022-09-02T06:59:26.907Z,94.42
2022-09-02T07:01:58.297Z,92.51
2022-09-02T07:04:45.933Z,92.05
2022-09-02T07:07:16.839Z,96.10
2022-09-02T07:09:51.453Z,96.10
2022-09-02T07:12:19.756Z,93.77
2022-09-02T07:15:13.704Z,95.70
2022-09-02T07:17:43.068Z,95.07
2022-09-02T07:20:24.323Z,94.84
2022-09-02T07:22:58.440Z,94.76
2022-09-02T07:25:28.579Z,93.78
2022-09-02T07:27:56.420Z,94.54
2022-09-02T07:30:25.416Z,91.48
2022-09-02T07:32:59.881Z,91.68
2022-09-02T07:35:31.241Z,93.91
2022-09-02T07:37:59.752Z,90.43
2022-09-02T07:40:27.610Z,90.35
2022-09-02T07:42:58.616Z,88.10
2022-09-02T07:45:26.878Z,88.43
2022-09-02T07:47:55.094Z,86.60
2022-09-02T07:50:27.114Z,83.95
2022-09-02T07:52:58.330Z,82.61
2022-09-02T07:55:31.018Z,80.99
2022-09-02T07:57:59.690Z,81.58
2022-09-02T08:00:30.084Z,82.06
2022-09-02T08:03:04.995Z,81.17
2022-09-02T08:05:39.567Z,81.06
2022-09-02T08:08:08.382Z,82.41
2022-09-02T08:10:38.123Z,82.74
2022-09-02T08:13:06.885Z,82.44
2022-09-02T08:15:36.347Z,82.92
2022-09-02T08:18:05.088Z,79.87
2022-09-02T08:20:32.655Z,79.15
2022-09-02T08:23:33.228Z,77.84
2022-09-02T08:25:48.011Z,78.51
2022-09-02T08:28:16.083Z,77.71
2022-09-02T08:30:43.835Z,77.30
2022-09-02T08:33:11.390Z,74.69
2022-09-02T08:35:39.445Z,74.55
2022-09-02T08:38:07.330Z,70.50
2022-09-02T08:40:42.018Z,71.11
2022-09-02T08:43:41.923Z,72.05
2022-09-02T08:46:16.580Z,72.16
2022-09-02T08:49:00.309Z,73.20
2022-09-02T08:51:38.351Z,72.31
2022-09-02T08:54:42.939Z,74.52
2022-09-02T08:57:11.544Z,76.73
2022-09-02T09:02:35.737Z,78.94
2022-09-02T09:05:15.397Z,79.71
2022-09-02T09:08:15.866Z,79.01
2022-09-02T09:11:35.278Z,78.30
2022-09-02T09:14:58.179Z,77.78
2022-09-02T09:17:45.556Z,78.37
2022-09-02T09:20:21.283Z,73.96
2022-09-02T09:22:53.035Z,75.19
2022-09-02T09:25:40.873Z,75.92
2022-09-02T09:28:08.467Z,76.85
2022-09-02T09:30:37.016Z,77.07
2022-09-02T09:33:06.292Z,77.51
2022-09-02T09:35:55.425Z,76.67
2022-09-02T09:38:36.200Z,76.31
2022-09-02T09:41:24.083Z,78.41
2022-09-02T09:43:51.685Z,77.77
2022-09-02T09:46:32.428Z,76.88
2022-09-02T09:49:00.144Z,77.55
2022-09-02T09:51:27.709Z,78.69
2022-09-02T09:54:16.182Z,79.65
2022-09-02T09:56:43.824Z,81.08
2022-09-02T09:59:39.690Z,81.04
2022-09-02T10:02:13.007Z,81.63
2022-09-02T10:04:43.349Z,83.38
2022-09-02T10:07:16.300Z,82.90
2022-09-02T10:09:44.006Z,86.37
2022-09-02T10:12:15.093Z,86.95
2022-09-02T10:14:50.192Z,90.74
2022-09-02T10:17:51.014Z,93.91
2022-09-02T10:20:31.788Z,94.30
2022-09-02T10:23:34.134Z,95.08
2022-09-02T10:26:31.807Z,95.67
2022-09-02T10:29:39.674Z,96.11
2022-09-02T10:32:12.855Z,96.75
2022-09-02T10:35:11.912Z,98.78
2022-09-02T10:37:57.201Z,100.00
2022-09-02T10:40:58.123Z,100.00
2022-09-02T10:44:19.585Z,100.00
2022-09-02T10:47:01.475Z,100.00
2022-09-02T10:49:59.863Z,100.00
2022-09-02T10:52:38.555Z,100.00
2022-09-02T10:55:21.632Z,100.00
2022-09-02T10:58:03.979Z,100.00
2022-09-02T11:00:33.071Z,100.00
2022-09-02T11:03:33.530Z,100.00
2022-09-02T11:06:26.235Z,100.00
2022-09-02T11:09:29.541Z,100.00
2022-09-02T11:12:11.105Z,100.00
2022-09-02T11:15:06.755Z,100.00
2022-09-02T11:17:57.277Z,100.00
2022-09-02T11:21:03.728Z,100.00
2022-09-02T11:23:53.034Z,100.00
2022-09-02T11:27:01.196Z,100.00
2022-09-02T11:30:14.476Z,100.00
2022-09-02T11:33:19.440Z,100.00
2022-09-02T11:35:47.483Z,100.00
2022-09-02T11:38:17.691Z,100.00
2022-09-02T11:44:34.623Z,100.00
2022-09-02T11:47:27.052Z,100.00
2022-09-02T11:50:42.382Z,100.00
2022-09-02T11:53:25.474Z,100.00
2022-09-02T11:56:19.100Z,100.00
2022-09-02T11:58:52.894Z,100.00
2022-09-02T12:01:52.718Z,100.00
2022-09-02T12:04:58.668Z,100.00
2022-09-02T12:07:14.368Z,100.00
2022-09-02T12:09:56.683Z,100.00
2022-09-02T12:12:39.482Z,100.00
2022-09-02T12:15:07.637Z,100.00
2022-09-02T12:17:45.503Z,100.00
2022-09-02T12:20:42.498Z,100.00
2022-09-02T12:23:58.438Z,100.00
2022-09-02T12:26:53.056Z,100.00
2022-09-02T12:29:20.702Z,100.00
2022-09-02T12:31:50.536Z,100.00
2022-09-02T12:34:28.733Z,100.00
2022-09-02T12:37:03.112Z,100.00
2022-09-02T12:39:35.309Z,100.00
2022-09-02T12:42:07.572Z,100.00
2022-09-02T12:45:12.093Z,100.00
2022-09-02T12:47:59.980Z,100.00
2022-09-02T12:50:58.569Z,100.00
2022-09-02T12:53:43.605Z,100.00
2022-09-02T12:56:19.549Z,100.00
2022-09-02T12:58:52.174Z,100.00
2022-09-02T13:01:54.282Z,100.00
2022-09-02T13:05:09.608Z,100.00
2022-09-02T13:08:17.757Z,100.00
2022-09-02T13:11:31.970Z,100.00
2022-09-02T13:14:15.317Z,100.00
2022-09-02T13:17:40.968Z,100.00
2022-09-02T13:20:56.146Z,100.00
2022-09-02T13:24:02.026Z,100.00
2022-09-02T13:27:14.894Z,100.00
2022-09-02T13:30:54.849Z,100.00
2022-09-02T13:33:23.026Z,100.00
2022-09-02T13:35:58.599Z,100.00
2022-09-02T13:38:29.588Z,100.00
2022-09-02T13:40:57.896Z,100.00
2022-09-02T13:43:27.221Z,100.00
2022-09-02T13:46:03.226Z,100.00
2022-09-02T13:48:34.983Z,100.00
2022-09-02T13:51:14.986Z,100.00
2022-09-02T13:54:18.875Z,100.00
2022-09-02T13:56:37.053Z,100.00
2022-09-02T13:59:04.599Z,100.00
2022-09-02T14:01:36.119Z,100.00
2022-09-02T14:04:17.246Z,100.00
2022-09-02T14:07:12.135Z,100.00
2022-09-02T14:09:41.581Z,100.00
2022-09-02T14:12:09.708Z,100.00
2022-09-02T14:14:37.659Z,100.00
2022-09-02T14:17:26.441Z,100.00
2022-09-02T14:20:23.153Z,100.00
2022-09-02T14:22:59.640Z,100.00
2022-09-02T14:25:37.462Z,100.00
2022-09-02T14:28:20.227Z,100.00
2022-09-02T14:31:07.641Z,100.00
2022-09-02T14:33:47.559Z,100.00
2022-09-02T14:36:21.438Z,100.00
2022-09-02T14:38:55.729Z,100.00
2022-09-02T14:41:30.450Z,100.00
2022-09-02T14:44:17.977Z,100.00
2022-09-02T14:46:53.968Z,100.00
2022-09-02T14:49:45.640Z,100.00
2022-09-02T14:52:28.717Z,100.00
2022-09-02T14:54:58.684Z,100.00
2022-09-02T14:57:39.073Z,100.00
2022-09-02T15:00:11.594Z,100.00
2022-09-02T15:02:46.458Z,100.00
2022-09-02T15:05:14.963Z,100.00
2022-09-02T15:07:42.851Z,100.00
2022-09-02T15:10:10.935Z,100.00
2022-09-02T15:12:52.507Z,100.00
2022-09-02T15:15:24.750Z,100.00
2022-09-02T15:17:52.453Z,100.00
2022-09-02T15:20:21.824Z,100.00
2022-09-02T15:22:51.596Z,100.00
2022-09-02T15:25:20.146Z,100.00
2022-09-02T15:27:47.719Z,100.00
2022-09-02T15:30:15.765Z,100.00
2022-09-02T15:32:43.480Z,100.00
2022-09-02T15:35:12.558Z,100.00
2022-09-02T15:37:40.536Z,100.00
2022-09-02T15:40:10.605Z,100.00
2022-09-02T15:42:40.689Z,100.00
2022-09-02T15:45:09.904Z,100.00
2022-09-02T15:47:38.739Z,100.00
2022-09-02T15:50:07.324Z,100.00
2022-09-02T15:52:36.260Z,100.00
2022-09-02T15:55:05.261Z,100.00
2022-09-02T15:57:34.876Z,100.00
2022-09-02T16:00:02.624Z,100.00
2022-09-02T16:02:39.955Z,100.00
2022-09-02T16:05:08.259Z,100.00
2022-09-02T16:07:37.014Z,100.00
2022-09-02T16:10:04.948Z,100.00
2022-09-02T16:12:33.166Z,100.00
2022-09-02T16:15:01.914Z,100.00
2022-09-02T16:17:29.861Z,100.00
2022-09-02T16:19:57.644Z,100.00
2022-09-02T16:22:25.298Z,100.00
2022-09-02T16:24:53.658Z,100.00
2022-09-02T16:27:41.320Z,100.00
2022-09-02T16:30:09.414Z,100.00
2022-09-02T16:32:41.423Z,100.00
2022-09-02T16:35:09.883Z,100.00
2022-09-02T16:37:37.376Z,100.00
2022-09-02T16:40:05.764Z,100.00
2022-09-02T16:42:37.434Z,100.00
2022-09-02T16:45:08.580Z,100.00
2022-09-02T16:47:36.241Z,100.00
2022-09-02T16:50:03.968Z,100.00
2022-09-02T16:52:34.936Z,100.00
2022-09-02T16:55:02.492Z,100.00
2022-09-02T16:57:30.847Z,100.00
2022-09-02T16:59:58.454Z,100.00
2022-09-02T17:02:26.141Z,100.00
2022-09-02T17:04:53.701Z,100.00
2022-09-02T17:07:21.844Z,100.00
2022-09-02T17:09:49.413Z,100.00
2022-09-02T17:12:18.344Z,100.00
2022-09-02T17:14:47.228Z,100.00
2022-09-02T17:17:17.213Z,100.00
2022-09-02T17:19:46.010Z,100.00
2022-09-02T17:22:16.012Z,100.00
2022-09-02T17:24:44.952Z,100.00
2022-09-02T17:27:13.230Z,100.00
2022-09-02T17:29:49.627Z,100.00
2022-09-02T17:32:21.513Z,100.00
2022-09-02T17:34:51.123Z,100.00
2022-09-02T17:37:22.306Z,100.00
2022-09-02T17:39:53.197Z,100.00
2022-09-02T17:42:26.642Z,100.00
2022-09-02T17:44:56.776Z,100.00
2022-09-02T17:47:45.935Z,100.00
2022-09-02T17:50:17.985Z,100.00
2022-09-02T17:52:48.239Z,100.00
2022-09-02T17:55:19.872Z,100.00
2022-09-02T17:58:17.790Z,100.00
2022-09-02T18:00:47.602Z,100.00
2022-09-02T18:03:46.128Z,100.00
2022-09-02T18:06:33.057Z,100.00
2022-09-02T18:09:11.111Z,100.00
2022-09-02T18:11:40.800Z,100.00
2022-09-02T18:14:37.761Z,100.00
2022-09-02T18:17:41.073Z,100.00
2022-09-02T18:20:43.579Z,100.00
2022-09-02T18:23:48.897Z,100.00
2022-09-02T18:26:32.688Z,100.00
2022-09-02T18:29:33.054Z,100.00
2022-09-02T18:32:30.830Z,100.00
2022-09-02T18:35:32.482Z,100.00
2022-09-02T18:38:28.224Z,100.00
2022-09-02T18:41:23.227Z,100.00
2022-09-02T18:44:16.378Z,100.00
2022-09-02T18:46:55.035Z,100.00
2022-09-02T18:49:25.812Z,100.00
2022-09-02T18:52:10.061Z,100.00
2022-09-02T18:55:10.344Z,100.00
2022-09-02T18:57:59.762Z,100.00
2022-09-02T19:00:31.073Z,100.00
2022-09-02T19:03:05.949Z,100.00
2022-09-02T19:05:36.882Z,100.00
2022-09-02T19:08:38.046Z,100.00
2022-09-02T19:11:17.286Z,100.00
2022-09-02T19:13:55.649Z,100.00
2022-09-02T19:16:30.314Z,100.00
2022-09-02T19:18:58.707Z,100.00
2022-09-02T19:21:55.153Z,100.00
2022-09-02T19:24:49.473Z,100.00
2022-09-02T19:27:30.074Z,100.00
2022-09-02T19:30:06.676Z,100.00
2022-09-02T19:32:39.217Z,100.00
2022-09-02T19:35:16.366Z,100.00
2022-09-02T19:37:51.391Z,100.00
2022-09-02T19:40:37.474Z,100.00
2022-09-02T19:43:07.690Z,100.00
2022-09-02T19:45:39.717Z,100.00
2022-09-02T19:48:11.309Z,100.00
2022-09-02T19:50:44.922Z,100.00
2022-09-02T19:53:25.364Z,100.00
2022-09-02T19:55:57.114Z,100.00
2022-09-02T19:58:28.808Z,100.00
2022-09-02T20:00:59.677Z,100.00
2022-09-02T20:03:28.307Z,100.00
2022-09-02T20:05:57.359Z,100.00
2022-09-02T20:08:31.261Z,100.00
2022-09-02T20:11:02.387Z,100.00
2022-09-02T20:13:41.347Z,100.00
2022-09-02T20:16:24.666Z,100.00
2022-09-02T20:18:54.100Z,100.00
2022-09-02T20:21:51.765Z,100.00
2022-09-02T20:24:49.764Z,100.00
2022-09-02T20:28:04.762Z,100.00
2022-09-02T20:30:37.364Z,100.00
2022-09-02T20:33:20.175Z,100.00
2022-09-02T20:36:31.592Z,100.00
2022-09-02T20:39:43.126Z,100.00
2022-09-02T20:42:40.424Z,100.00
2022-09-02T20:45:10.950Z,100.00
2022-09-02T20:47:58.451Z,100.00
2022-09-02T20:50:49.835Z,100.00
2022-09-02T20:53:41.156Z,100.00
2022-09-02T20:56:42.534Z,100.00
2022-09-02T20:59:31.255Z,100.00
2022-09-02T21:02:05.263Z,100.00
2022-09-02T21:04:46.690Z,100.00
2022-09-02T21:07:42.769Z,100.00
2022-09-02T21:10:19.299Z,100.00
2022-09-02T21:13:23.298Z,100.00
2022-09-02T21:15:57.133Z,100.00
2022-09-02T21:18:47.391Z,100.00
2022-09-02T21:21:49.201Z,100.00
2022-09-02T21:24:44.026Z,100.00
2022-09-02T21:27:20.589Z,100.00
2022-09-02T21:30:02.533Z,100.00
2022-09-02T21:33:01.022Z,100.00
2022-09-02T21:35:41.508Z,100.00
2022-09-02T21:38:19.106Z,100.00
2022-09-02T21:41:38.857Z,100.00
2022-09-02T21:44:28.338Z,100.00
2022-09-02T21:47:24.337Z,100.00
2022-09-02T21:50:16.556Z,100.00
2022-09-02T21:53:17.697Z,100.00
2022-09-02T21:56:08.453Z,100.00
2022-09-02T21:59:06.306Z,100.00
2022-09-02T22:02:25.448Z,100.00
2022-09-02T22:05:39.211Z,100.00
2022-09-02T22:08:58.557Z,100.00
2022-09-02T22:11:48.426Z,100.00
2022-09-02T22:14:39.511Z,100.00
2022-09-02T22:17:26.972Z,100.00
2022-09-02T22:20:02.421Z,100.00
2022-09-02T22:22:38.993Z,100.00
2022-09-02T22:25:27.627Z,100.00
2022-09-02T22:28:05.901Z,100.00
2022-09-02T22:30:41.844Z,100.00
2022-09-02T22:33:16.330Z,100.00
2022-09-02T22:35:57.603Z,100.00
2022-09-02T22:38:48.997Z,100.00
2022-09-02T22:41:31.066Z,100.00
2022-09-02T22:44:22.848Z,100.00
2022-09-02T22:47:17.365Z,100.00
2022-09-02T22:50:16.566Z,100.00
2022-09-02T22:52:57.417Z,100.00
2022-09-02T22:56:04.491Z,100.00
2022-09-02T22:59:08.395Z,100.00
2022-09-02T23:02:15.912Z,100.00
2022-09-02T23:05:38.329Z,100.00
2022-09-02T23:08:12.475Z,100.00
2022-09-02T23:11:12.864Z,100.00
2022-09-02T23:13:53.365Z,100.00
2022-09-02T23:16:47.760Z,100.00
2022-09-02T23:19:45.337Z,100.00
2022-09-02T23:23:04.617Z,100.00
2022-09-02T23:32:03.360Z,100.00
2022-09-02T23:35:07.657Z,100.00
2022-09-02T23:38:24.348Z,100.00
2022-09-02T23:41:12.511Z,100.00
2022-09-02T23:43:43.524Z,100.00
2022-09-02T23:46:45.796Z,100.00
2022-09-02T23:50:04.433Z,100.00
2022-09-02T23:53:09.558Z,100.00
2022-09-02T23:56:32.772Z,100.00
2022-09-02T23:59:24.693Z,100.00
